createdAt,value
2019-05-28T00:00:50.462Z,100.00
2019-05-28T00:03:18.787Z,100.00
2019-05-28T00:05:47.170Z,100.00
2019-05-28T00:08:15.502Z,100.00
2019-05-28T00:10:43.758Z,100.00
2019-05-28T00:13:12.076Z,100.00
2019-05-28T00:15:41.645Z,100.00
2019-05-28T00:18:09.998Z,100.00
2019-05-28T00:20:38.513Z,100.00
2019-05-28T00:23:06.798Z,100.00
2019-05-28T00:25:35.098Z,100.00
2019-05-28T00:28:03.527Z,100.00
2019-05-28T00:30:31.984Z,100.00
2019-05-28T00:33:00.269Z,100.00
2019-05-28T00:35:28.685Z,100.00
2019-05-28T00:37:57.120Z,100.00
2019-05-28T00:40:25.430Z,100.00
2019-05-28T00:42:53.714Z,100.00
2019-05-28T00:45:22.015Z,100.00
2019-05-28T00:47:50.331Z,100.00
2019-05-28T00:50:18.641Z,100.00
2019-05-28T00:52:47.091Z,100.00
2019-05-28T00:55:15.518Z,100.00
2019-05-28T00:57:44.568Z,100.00
2019-05-28T01:00:13.005Z,100.00
2019-05-28T01:02:41.465Z,100.00
2019-05-28T01:05:09.737Z,100.00
2019-05-28T01:07:38.043Z,100.00
2019-05-28T01:10:07.764Z,100.00
2019-05-28T01:12:36.069Z,100.00
2019-05-28T01:15:08.947Z,100.00
2019-05-28T01:17:37.608Z,100.00
2019-05-28T01:20:08.842Z,100.00
2019-05-28T01:22:37.113Z,100.00
2019-05-28T01:25:06.361Z,100.00
2019-05-28T01:27:34.964Z,100.00
2019-05-28T01:30:04.288Z,100.00
2019-05-28T01:32:32.648Z,100.00
2019-05-28T01:35:00.957Z,100.00
2019-05-28T01:37:29.239Z,100.00
2019-05-28T01:39:57.593Z,100.00
2019-05-28T01:42:25.934Z,100.00
2019-05-28T01:44:54.360Z,100.00
2019-05-28T01:47:22.654Z,100.00
2019-05-28T01:49:50.931Z,100.00
2019-05-28T01:52:19.293Z,100.00
2019-05-28T01:54:47.602Z,100.00
2019-05-28T01:57:15.911Z,100.00
2019-05-28T01:59:44.279Z,100.00
2019-05-28T02:02:12.666Z,100.00
2019-05-28T02:04:40.984Z,100.00
2019-05-28T02:07:09.421Z,100.00
2019-05-28T02:09:37.801Z,100.00
2019-05-28T02:12:06.105Z,100.00
2019-05-28T02:14:35.025Z,100.00
2019-05-28T02:17:05.692Z,100.00
2019-05-28T02:19:34.058Z,100.00
2019-05-28T02:22:02.370Z,100.00
2019-05-28T02:24:30.682Z,100.00
2019-05-28T02:26:59.016Z,100.00
2019-05-28T02:29:27.370Z,100.00
2019-05-28T02:31:55.709Z,100.00
2019-05-28T02:34:24.046Z,100.00
2019-05-28T02:36:52.364Z,100.00
2019-05-28T02:39:20.884Z,100.00
2019-05-28T02:41:49.190Z,100.00
2019-05-28T02:44:17.571Z,100.00
2019-05-28T02:46:45.896Z,100.00
2019-05-28T02:49:14.227Z,100.00
2019-05-28T02:51:42.734Z,100.00
2019-05-28T02:54:11.190Z,100.00
2019-05-28T02:56:40.402Z,100.00
2019-05-28T02:59:09.082Z,100.00
2019-05-28T03:01:44.200Z,100.00
2019-05-28T03:04:07.708Z,100.00
2019-05-28T03:06:36.058Z,100.00
2019-05-28T03:09:06.706Z,100.00
2019-05-28T03:11:35.133Z,100.00
2019-05-28T03:14:03.436Z,100.00
2019-05-28T03:16:31.818Z,100.00
2019-05-28T03:19:00.125Z,100.00
2019-05-28T03:21:28.407Z,100.00
2019-05-28T03:23:57.246Z,100.00
2019-05-28T03:26:25.552Z,100.00
2019-05-28T03:28:53.835Z,100.00
2019-05-28T03:31:22.248Z,100.00
2019-05-28T03:33:50.580Z,100.00
2019-05-28T03:36:18.862Z,100.00
2019-05-28T03:38:47.851Z,100.00
2019-05-28T03:41:16.136Z,100.00
2019-05-28T03:43:44.584Z,100.00
2019-05-28T03:46:13.017Z,100.00
2019-05-28T03:48:41.303Z,100.00
2019-05-28T03:51:09.638Z,100.00
2019-05-28T03:53:37.958Z,100.00
2019-05-28T03:56:06.439Z,100.00
2019-05-28T03:58:34.730Z,100.00
2019-05-28T04:01:03.063Z,100.00
2019-05-28T04:03:31.366Z,100.00
2019-05-28T04:06:00.521Z,100.00
2019-05-28T04:08:29.100Z,100.00
2019-05-28T04:10:57.493Z,100.00
2019-05-28T04:13:25.978Z,100.00
2019-05-28T04:15:54.294Z,100.00
2019-05-28T04:18:22.641Z,100.00
2019-05-28T04:20:50.946Z,100.00
2019-05-28T04:23:19.501Z,100.00
2019-05-28T04:25:47.807Z,100.00
2019-05-28T04:28:16.253Z,100.00
2019-05-28T04:30:44.725Z,100.00
2019-05-28T04:33:13.129Z,100.00
2019-05-28T04:35:41.473Z,100.00
2019-05-28T04:38:09.762Z,100.00
2019-05-28T04:40:38.085Z,100.00
2019-05-28T04:43:06.391Z,100.00
2019-05-28T04:45:34.804Z,100.00
2019-05-28T04:48:03.089Z,100.00
2019-05-28T04:50:31.441Z,100.00
2019-05-28T04:52:59.776Z,100.00
2019-05-28T04:55:28.221Z,100.00
2019-05-28T04:57:56.521Z,100.00
2019-05-28T05:00:24.938Z,100.00
2019-05-28T05:02:59.153Z,100.00
2019-05-28T05:05:23.393Z,100.00
2019-05-28T05:07:51.672Z,100.00
2019-05-28T05:10:20.040Z,100.00
2019-05-28T05:12:48.342Z,100.00
2019-05-28T05:15:16.699Z,100.00
2019-05-28T05:17:45.144Z,100.00
2019-05-28T05:20:13.426Z,100.00
2019-05-28T05:22:41.719Z,100.00
2019-05-28T05:25:10.409Z,100.00
2019-05-28T05:27:38.793Z,100.00
2019-05-28T05:30:07.407Z,100.00
2019-05-28T05:32:35.723Z,100.00
2019-05-28T05:35:04.681Z,100.00
2019-05-28T05:37:33.031Z,100.00
2019-05-28T05:40:01.380Z,100.00
2019-05-28T05:42:29.784Z,100.00
2019-05-28T05:44:58.320Z,100.00
2019-05-28T05:47:26.618Z,100.00
2019-05-28T05:49:54.924Z,100.00
2019-05-28T05:52:23.226Z,100.00
2019-05-28T05:54:51.566Z,100.00
2019-05-28T05:57:19.853Z,100.00
2019-05-28T05:59:48.436Z,100.00
2019-05-28T06:02:16.767Z,100.00
2019-05-28T06:04:45.047Z,100.00
2019-05-28T06:07:13.326Z,100.00
2019-05-28T06:09:41.665Z,100.00
2019-05-28T06:12:10.028Z,100.00
2019-05-28T06:14:38.409Z,100.00
2019-05-28T06:17:06.837Z,100.00
2019-05-28T06:19:35.100Z,100.00
2019-05-28T06:22:04.110Z,100.00
2019-05-28T06:24:32.390Z,100.00
2019-05-28T06:27:00.708Z,100.00
2019-05-28T06:29:29.130Z,100.00
2019-05-28T06:31:57.469Z,100.00
2019-05-28T06:34:25.847Z,100.00
2019-05-28T06:36:54.228Z,100.00
2019-05-28T06:39:22.512Z,100.00
2019-05-28T06:41:51.009Z,97.96
2019-05-28T06:44:19.361Z,97.66
2019-05-28T06:46:47.648Z,96.18
2019-05-28T06:49:15.954Z,94.19
2019-05-28T06:51:44.234Z,94.61
2019-05-28T06:54:12.547Z,93.53
2019-05-28T06:56:40.834Z,89.31
2019-05-28T06:59:09.138Z,90.04
2019-05-28T07:01:37.607Z,87.57
2019-05-28T07:04:13.928Z,85.32
2019-05-28T07:06:36.212Z,84.16
2019-05-28T07:09:06.240Z,84.49
2019-05-28T07:11:34.656Z,83.26
2019-05-28T07:14:02.995Z,83.52
2019-05-28T07:16:31.351Z,81.07
2019-05-28T07:18:59.667Z,81.74
2019-05-28T07:21:28.758Z,82.70
2019-05-28T07:23:57.111Z,80.96
2019-05-28T07:26:25.412Z,80.92
2019-05-28T07:28:53.709Z,77.75
2019-05-28T07:31:22.279Z,77.54
2019-05-28T07:33:50.544Z,77.93
2019-05-28T07:36:19.011Z,75.55
2019-05-28T07:38:47.319Z,74.93
2019-05-28T07:41:15.598Z,73.88
2019-05-28T07:43:43.899Z,76.25
2019-05-28T07:46:12.199Z,76.55
2019-05-28T07:48:40.642Z,76.67
2019-05-28T07:51:08.892Z,76.52
2019-05-28T07:53:40.526Z,73.55
2019-05-28T07:56:07.361Z,74.43
2019-05-28T07:58:35.666Z,75.79
2019-05-28T08:01:04.033Z,74.03
2019-05-28T08:03:32.569Z,74.37
2019-05-28T08:06:00.836Z,71.16
2019-05-28T08:08:29.276Z,71.10
2019-05-28T08:10:57.581Z,73.42
2019-05-28T08:13:39.465Z,72.03
2019-05-28T08:16:16.542Z,70.44
2019-05-28T08:18:26.164Z,69.07
2019-05-28T08:20:55.261Z,71.02
2019-05-28T08:23:23.667Z,69.64
2019-05-28T08:25:52.029Z,66.28
2019-05-28T08:28:20.728Z,69.23
2019-05-28T08:30:49.160Z,71.16
2019-05-28T08:33:17.489Z,70.56
2019-05-28T08:35:45.950Z,69.97
2019-05-28T08:38:14.434Z,69.18
2019-05-28T08:40:42.851Z,67.53
2019-05-28T08:43:11.204Z,68.88
2019-05-28T08:45:42.596Z,68.21
2019-05-28T08:48:09.691Z,67.96
2019-05-28T08:50:38.008Z,68.46
2019-05-28T08:53:06.290Z,68.69
2019-05-28T08:55:34.780Z,69.58
2019-05-28T08:58:03.159Z,69.28
2019-05-28T09:00:39.289Z,69.25
2019-05-28T09:03:07.665Z,66.68
2019-05-28T09:05:35.971Z,66.37
2019-05-28T09:08:04.597Z,67.26
2019-05-28T09:10:32.894Z,65.09
2019-05-28T09:13:01.267Z,64.69
2019-05-28T09:15:29.576Z,64.49
2019-05-28T09:17:57.856Z,64.08
2019-05-28T09:20:26.244Z,63.59
2019-05-28T09:22:54.537Z,65.98
2019-05-28T09:25:22.858Z,66.09
2019-05-28T09:27:51.157Z,62.72
2019-05-28T09:30:19.566Z,65.13
2019-05-28T09:32:47.996Z,63.78
2019-05-28T09:35:16.512Z,60.17
2019-05-28T09:37:44.848Z,61.45
2019-05-28T09:40:13.126Z,62.49
2019-05-28T09:42:41.548Z,61.09
2019-05-28T09:45:22.088Z,57.36
2019-05-28T09:47:39.825Z,57.48
2019-05-28T09:50:27.099Z,55.61
2019-05-28T09:52:53.112Z,55.51
2019-05-28T09:55:08.339Z,55.13
2019-05-28T09:57:46.813Z,53.86
2019-05-28T10:00:15.226Z,55.26
2019-05-28T10:02:43.693Z,54.80
2019-05-28T10:05:11.984Z,55.55
2019-05-28T10:07:40.287Z,56.35
2019-05-28T10:10:08.689Z,55.12
2019-05-28T10:12:37.743Z,53.31
2019-05-28T10:15:10.325Z,51.58
2019-05-28T10:17:38.671Z,51.98
2019-05-28T10:20:07.113Z,50.56
2019-05-28T10:22:35.393Z,52.25
2019-05-28T10:25:06.037Z,53.95
2019-05-28T10:27:34.347Z,54.93
2019-05-28T10:30:02.906Z,55.82
2019-05-28T10:32:31.322Z,56.57
2019-05-28T10:35:03.681Z,56.33
2019-05-28T10:37:29.822Z,56.67
2019-05-28T10:39:58.344Z,56.07
2019-05-28T10:42:26.623Z,55.48
2019-05-28T10:44:55.100Z,56.16
2019-05-28T10:47:23.458Z,54.65
2019-05-28T10:49:51.840Z,54.69
2019-05-28T10:52:20.202Z,54.72
2019-05-28T10:54:48.478Z,53.33
2019-05-28T10:57:16.801Z,52.27
2019-05-28T10:59:45.088Z,51.37
2019-05-28T11:02:13.515Z,52.49
2019-05-28T11:04:41.871Z,52.74
2019-05-28T11:07:10.154Z,53.02
2019-05-28T11:09:38.469Z,52.02
2019-05-28T11:12:07.048Z,53.51
2019-05-28T11:14:35.445Z,53.69
2019-05-28T11:17:03.806Z,53.71
2019-05-28T11:19:32.085Z,52.93
2019-05-28T11:22:00.405Z,52.68
2019-05-28T11:24:28.836Z,53.08
2019-05-28T11:26:57.323Z,51.88
2019-05-28T11:29:25.602Z,52.22
2019-05-28T11:31:53.884Z,52.39
2019-05-28T11:34:22.246Z,51.73
2019-05-28T11:36:50.663Z,51.96
2019-05-28T11:39:18.918Z,52.19
2019-05-28T11:41:47.267Z,52.28
2019-05-28T11:44:15.586Z,51.75
2019-05-28T11:46:43.944Z,52.02
2019-05-28T11:49:12.236Z,52.57
2019-05-28T11:51:40.737Z,52.32
2019-05-28T11:54:09.170Z,53.72
2019-05-28T11:56:37.507Z,55.08
2019-05-28T11:59:05.898Z,55.50
2019-05-28T12:01:35.512Z,54.68
2019-05-28T12:04:04.053Z,55.20
2019-05-28T12:06:37.948Z,56.76
2019-05-28T12:09:02.610Z,58.15
2019-05-28T12:11:30.898Z,57.72
2019-05-28T12:13:59.376Z,58.12
2019-05-28T12:16:28.000Z,57.92
2019-05-28T12:18:58.391Z,57.99
2019-05-28T12:21:26.354Z,58.23
2019-05-28T12:23:54.663Z,60.08
2019-05-28T12:26:22.950Z,60.16
2019-05-28T12:28:51.252Z,61.77
2019-05-28T12:31:19.690Z,62.09
2019-05-28T12:33:48.062Z,62.34
2019-05-28T12:36:16.347Z,62.29
2019-05-28T12:38:44.763Z,62.29
2019-05-28T12:41:13.048Z,61.09
2019-05-28T12:43:41.323Z,60.69
2019-05-28T12:46:09.640Z,62.04
2019-05-28T12:48:37.915Z,62.52
2019-05-28T12:51:06.306Z,62.20
2019-05-28T12:53:49.239Z,62.46
2019-05-28T12:56:04.841Z,63.69
2019-05-28T12:58:42.585Z,64.97
2019-05-28T13:01:03.376Z,65.29
2019-05-28T13:03:31.917Z,65.30
2019-05-28T13:06:00.172Z,63.50
2019-05-28T13:08:28.476Z,61.86
2019-05-28T13:10:56.759Z,62.16
2019-05-28T13:13:25.068Z,62.70
2019-05-28T13:15:53.364Z,62.68
2019-05-28T13:18:21.786Z,62.69
2019-05-28T13:20:50.132Z,63.65
2019-05-28T13:23:18.459Z,63.20
2019-05-28T13:25:46.793Z,64.72
2019-05-28T13:28:15.074Z,63.86
2019-05-28T13:30:43.379Z,63.66
2019-05-28T13:33:11.712Z,63.45
2019-05-28T13:35:40.082Z,64.19
2019-05-28T13:38:25.564Z,64.17
2019-05-28T13:40:38.377Z,63.58
2019-05-28T13:43:06.732Z,63.80
2019-05-28T13:45:35.020Z,64.02
2019-05-28T13:48:03.294Z,64.26
2019-05-28T13:50:31.600Z,64.61
2019-05-28T13:52:59.885Z,65.56
2019-05-28T13:55:28.192Z,63.01
2019-05-28T13:57:56.507Z,63.00
2019-05-28T14:00:25.542Z,62.09
2019-05-28T14:02:53.930Z,61.72
2019-05-28T14:05:22.281Z,62.69
2019-05-28T14:07:50.564Z,63.34
2019-05-28T14:10:18.862Z,62.59
2019-05-28T14:12:47.730Z,64.20
2019-05-28T14:15:16.222Z,63.40
2019-05-28T14:17:44.964Z,62.08
2019-05-28T14:20:13.630Z,60.97
2019-05-28T14:22:42.132Z,60.92
2019-05-28T14:25:10.480Z,60.46
2019-05-28T14:27:38.907Z,61.79
2019-05-28T14:30:18.214Z,60.93
2019-05-28T14:32:46.489Z,60.82
2019-05-28T14:35:15.382Z,60.71
2019-05-28T14:37:43.779Z,59.78
2019-05-28T14:40:12.059Z,59.59
2019-05-28T14:42:40.337Z,56.21
2019-05-28T14:45:09.280Z,58.52
2019-05-28T14:47:37.640Z,58.27
2019-05-28T14:50:07.796Z,57.51
2019-05-28T14:52:36.162Z,58.32
2019-05-28T14:55:09.024Z,57.52
2019-05-28T14:57:37.389Z,57.40
2019-05-28T15:00:12.625Z,57.40
2019-05-28T15:02:40.898Z,59.06
2019-05-28T15:05:09.302Z,57.47
2019-05-28T15:07:37.701Z,58.62
2019-05-28T15:10:10.088Z,58.46
2019-05-28T15:12:38.391Z,59.57
2019-05-28T15:15:07.050Z,58.17
2019-05-28T15:17:35.465Z,56.85
2019-05-28T15:20:05.722Z,56.67
2019-05-28T15:22:34.083Z,58.04
2019-05-28T15:25:02.645Z,59.71
2019-05-28T15:27:32.287Z,56.94
2019-05-28T15:30:00.604Z,55.50
2019-05-28T15:32:28.916Z,55.60
2019-05-28T15:34:57.540Z,56.29
2019-05-28T15:37:26.067Z,56.27
2019-05-28T15:39:54.368Z,55.23
2019-05-28T15:42:22.658Z,56.66
2019-05-28T15:44:51.032Z,57.96
2019-05-28T15:47:19.327Z,58.04
2019-05-28T15:49:47.699Z,59.12
2019-05-28T15:52:16.083Z,58.92
2019-05-28T15:54:44.520Z,59.27
2019-05-28T15:57:12.811Z,59.30
2019-05-28T15:59:41.108Z,56.99
2019-05-28T16:02:09.436Z,56.82
2019-05-28T16:04:37.870Z,58.23
2019-05-28T16:07:06.291Z,57.81
2019-05-28T16:09:34.728Z,55.04
2019-05-28T16:12:03.033Z,55.23
2019-05-28T16:14:31.335Z,56.65
2019-05-28T16:16:59.673Z,56.79
2019-05-28T16:19:28.006Z,57.51
2019-05-28T16:21:56.318Z,58.08
2019-05-28T16:24:24.673Z,58.86
2019-05-28T16:26:53.014Z,59.50
2019-05-28T16:29:21.298Z,59.63
2019-05-28T16:31:49.583Z,60.60
2019-05-28T16:34:17.884Z,61.97
2019-05-28T16:36:46.187Z,61.85
2019-05-28T16:39:14.541Z,62.04
2019-05-28T16:41:42.950Z,62.77
2019-05-28T16:44:11.429Z,63.27
2019-05-28T16:46:39.733Z,63.09
2019-05-28T16:49:08.009Z,63.96
2019-05-28T16:51:36.326Z,63.46
2019-05-28T16:54:18.638Z,61.10
2019-05-28T16:56:34.860Z,61.10
2019-05-28T16:59:03.271Z,60.25
2019-05-28T17:01:31.562Z,60.69
2019-05-28T17:03:59.902Z,59.60
2019-05-28T17:06:28.327Z,59.68
2019-05-28T17:08:57.372Z,59.65
2019-05-28T17:11:27.972Z,59.25
2019-05-28T17:13:55.797Z,60.41
2019-05-28T17:16:24.069Z,59.58
2019-05-28T17:18:52.406Z,59.09
2019-05-28T17:21:23.070Z,58.65
2019-05-28T17:23:50.757Z,57.91
2019-05-28T17:26:19.212Z,57.25
2019-05-28T17:28:47.486Z,56.04
2019-05-28T17:31:15.854Z,56.79
2019-05-28T17:33:44.266Z,56.70
2019-05-28T17:36:12.630Z,55.39
2019-05-28T17:38:41.036Z,55.31
2019-05-28T17:41:09.568Z,55.81
2019-05-28T17:43:37.953Z,56.61
2019-05-28T17:46:06.359Z,55.52
2019-05-28T17:48:34.717Z,56.46
2019-05-28T17:51:03.198Z,57.50
2019-05-28T17:53:31.575Z,57.55
2019-05-28T17:55:59.939Z,59.06
2019-05-28T17:58:30.953Z,60.03
2019-05-28T18:00:58.335Z,60.86
2019-05-28T18:03:26.668Z,61.07
2019-05-28T18:05:55.001Z,61.89
2019-05-28T18:08:23.385Z,61.83
2019-05-28T18:11:03.683Z,62.16
2019-05-28T18:13:21.773Z,62.92
2019-05-28T18:15:50.194Z,61.66
2019-05-28T18:18:18.541Z,62.82
2019-05-28T18:20:46.847Z,63.46
2019-05-28T18:23:15.404Z,62.89
2019-05-28T18:25:43.711Z,62.96
2019-05-28T18:28:12.163Z,61.44
2019-05-28T18:30:40.546Z,61.93
2019-05-28T18:33:08.824Z,62.33
2019-05-28T18:35:37.460Z,63.51
2019-05-28T18:38:05.727Z,63.50
2019-05-28T18:40:34.049Z,64.23
2019-05-28T18:43:02.878Z,64.08
2019-05-28T18:45:31.288Z,64.42
2019-05-28T18:47:59.579Z,64.49
2019-05-28T18:50:28.704Z,65.20
2019-05-28T18:52:57.129Z,65.77
2019-05-28T18:55:25.768Z,66.35
2019-05-28T18:57:54.130Z,66.38
2019-05-28T19:00:22.671Z,66.51
2019-05-28T19:02:51.104Z,66.41
2019-05-28T19:05:19.389Z,66.73
2019-05-28T19:07:47.752Z,67.40
2019-05-28T19:10:16.077Z,68.71
2019-05-28T19:12:44.447Z,69.42
2019-05-28T19:15:12.871Z,69.75
2019-05-28T19:17:41.191Z,70.09
2019-05-28T19:20:10.629Z,70.88
2019-05-28T19:22:39.016Z,71.31
2019-05-28T19:25:10.523Z,71.54
2019-05-28T19:27:38.813Z,72.37
2019-05-28T19:30:07.799Z,72.96
2019-05-28T19:32:36.198Z,72.90
2019-05-28T19:35:07.954Z,73.32
2019-05-28T19:37:36.306Z,73.73
2019-05-28T19:40:06.717Z,74.42
2019-05-28T19:42:34.999Z,74.39
2019-05-28T19:45:04.455Z,74.61
2019-05-28T19:47:32.884Z,75.39
2019-05-28T19:50:01.248Z,75.62
2019-05-28T19:52:29.637Z,75.53
2019-05-28T19:54:57.952Z,76.13
2019-05-28T19:57:26.237Z,76.00
2019-05-28T19:59:54.687Z,76.35
2019-05-28T20:02:23.004Z,76.67
2019-05-28T20:04:51.376Z,76.49
2019-05-28T20:07:19.924Z,77.15
2019-05-28T20:09:48.228Z,77.28
2019-05-28T20:12:16.510Z,77.43
2019-05-28T20:14:44.845Z,77.80
2019-05-28T20:19:40.597Z,78.63
2019-05-28T20:22:09.012Z,78.72
2019-05-28T20:24:37.187Z,79.24
2019-05-28T20:27:05.540Z,79.58
2019-05-28T20:29:33.947Z,79.94
2019-05-28T20:32:03.179Z,80.03
2019-05-28T20:34:31.689Z,80.16
2019-05-28T20:37:00.041Z,80.38
2019-05-28T20:39:28.374Z,80.48
2019-05-28T20:41:56.649Z,80.57
2019-05-28T20:44:24.971Z,80.84
2019-05-28T20:46:53.261Z,81.21
2019-05-28T20:49:21.709Z,81.88
2019-05-28T20:51:52.165Z,82.22
2019-05-28T20:54:20.618Z,82.43
2019-05-28T20:56:51.176Z,83.08
2019-05-28T20:59:19.004Z,83.41
2019-05-28T21:01:47.654Z,83.42
2019-05-28T21:04:15.936Z,83.66
2019-05-28T21:06:44.252Z,83.71
2019-05-28T21:09:13.068Z,84.34
2019-05-28T21:11:41.937Z,84.51
2019-05-28T21:14:10.259Z,84.58
2019-05-28T21:16:38.583Z,84.79
2019-05-28T21:19:06.868Z,85.21
2019-05-28T21:21:35.264Z,85.38
2019-05-28T21:24:03.581Z,85.67
2019-05-28T21:26:31.920Z,85.80
2019-05-28T21:29:00.581Z,86.35
2019-05-28T21:31:29.183Z,86.50
2019-05-28T21:33:57.604Z,86.81
2019-05-28T21:36:26.752Z,86.76
2019-05-28T21:38:55.289Z,86.92
2019-05-28T21:41:23.873Z,87.51
2019-05-28T21:43:52.460Z,87.47
2019-05-28T21:46:20.876Z,87.45
2019-05-28T21:48:49.143Z,87.72
2019-05-28T21:51:17.530Z,87.78
2019-05-28T21:53:45.844Z,87.96
2019-05-28T21:56:14.127Z,88.20
2019-05-28T21:58:42.387Z,88.44
2019-05-28T22:01:16.889Z,88.56
2019-05-28T22:03:45.189Z,88.72
2019-05-28T22:06:13.439Z,88.89
2019-05-28T22:08:41.675Z,88.98
2019-05-28T22:11:09.944Z,89.04
2019-05-28T22:13:38.197Z,89.15
2019-05-28T22:16:06.496Z,89.28
2019-05-28T22:18:34.773Z,89.43
2019-05-28T22:21:03.014Z,89.59
2019-05-28T22:23:31.307Z,89.55
2019-05-28T22:26:00.453Z,89.66
2019-05-28T22:28:28.774Z,89.88
2019-05-28T22:30:57.717Z,90.06
2019-05-28T22:33:26.046Z,90.15
2019-05-28T22:35:54.351Z,90.52
2019-05-28T22:38:22.588Z,90.79
2019-05-28T22:40:50.853Z,90.98
2019-05-28T22:43:30.723Z,91.20
2019-05-28T22:45:49.380Z,91.53
2019-05-28T22:48:18.277Z,91.63
2019-05-28T22:50:46.797Z,91.93
2019-05-28T22:53:15.152Z,92.28
2019-05-28T22:55:43.394Z,92.77
2019-05-28T22:58:11.708Z,93.22
2019-05-28T23:00:40.091Z,93.37
2019-05-28T23:03:09.374Z,93.57
2019-05-28T23:05:37.670Z,93.71
2019-05-28T23:08:05.969Z,93.92
2019-05-28T23:10:34.248Z,94.19
2019-05-28T23:13:03.041Z,94.39
2019-05-28T23:15:31.586Z,95.48
2019-05-28T23:18:00.393Z,95.65
2019-05-28T23:20:28.735Z,95.65
2019-05-28T23:22:56.995Z,95.63
2019-05-28T23:25:25.295Z,95.61
2019-05-28T23:27:53.557Z,95.65
2019-05-28T23:30:25.225Z,95.80
2019-05-28T23:32:51.833Z,95.85
2019-05-28T23:35:20.146Z,95.85
2019-05-28T23:37:48.428Z,95.97
2019-05-28T23:40:17.834Z,96.03
2019-05-28T23:42:46.092Z,96.08
2019-05-28T23:45:14.417Z,96.10
2019-05-28T23:47:42.753Z,96.16
2019-05-28T23:50:15.833Z,96.74
2019-05-28T23:52:41.032Z,96.90
2019-05-28T23:55:09.940Z,97.05
2019-05-28T23:57:38.301Z,97.37
